sensor_id;sensor_type;location;lat;lon;timestamp;P1;durP1;ratioP1;P2;durP2;ratioP2
69551;SDS011;63774;45.292;11.784;2022-10-29T00:00:48;10.20;;;6.00;;
69551;SDS011;63774;45.292;11.784;2022-10-29T00:03:20;10.70;;;6.10;;
69551;SDS011;63774;45.292;11.784;2022-10-29T00:05:56;10.10;;;5.80;;
69551;SDS011;63774;45.292;11.784;2022-10-29T00:08:23;11.60;;;6.10;;
69551;SDS011;63774;45.292;11.784;2022-10-29T00:10:49;8.70;;;5.60;;
69551;SDS011;63774;45.292;11.784;2022-10-29T00:13:15;8.50;;;5.80;;
69551;SDS011;63774;45.292;11.784;2022-10-29T00:15:41;10.30;;;6.40;;
69551;SDS011;63774;45.292;11.784;2022-10-29T00:18:07;9.60;;;5.70;;
69551;SDS011;63774;45.292;11.784;2022-10-29T00:20:32;10.50;;;5.80;;
69551;SDS011;63774;45.292;11.784;2022-10-29T00:23:01;9.80;;;5.30;;
69551;SDS011;63774;45.292;11.784;2022-10-29T00:25:26;9.30;;;5.50;;
69551;SDS011;63774;45.292;11.784;2022-10-29T00:27:52;8.60;;;5.40;;
69551;SDS011;63774;45.292;11.784;2022-10-29T00:30:19;10.80;;;6.00;;
69551;SDS011;63774;45.292;11.784;2022-10-29T00:32:45;11.80;;;6.30;;
69551;SDS011;63774;45.292;11.784;2022-10-29T00:35:10;11.00;;;6.10;;
69551;SDS011;63774;45.292;11.784;2022-10-29T00:37:35;9.20;;;5.60;;
69551;SDS011;63774;45.292;11.784;2022-10-29T00:40:02;9.40;;;5.90;;
69551;SDS011;63774;45.292;11.784;2022-10-29T00:42:28;8.30;;;5.50;;
69551;SDS011;63774;45.292;11.784;2022-10-29T00:44:54;9.90;;;5.70;;
69551;SDS011;63774;45.292;11.784;2022-10-29T00:47:23;9.10;;;5.70;;
69551;SDS011;63774;45.292;11.784;2022-10-29T00:49:56;7.80;;;5.10;;
69551;SDS011;63774;45.292;11.784;2022-10-29T00:52:28;8.10;;;5.50;;
69551;SDS011;63774;45.292;11.784;2022-10-29T00:54:56;8.40;;;5.50;;
69551;SDS011;63774;45.292;11.784;2022-10-29T00:57:31;9.10;;;5.40;;
69551;SDS011;63774;45.292;11.784;2022-10-29T01:00:01;10.00;;;5.40;;
69551;SDS011;63774;45.292;11.784;2022-10-29T01:02:28;7.40;;;5.00;;
69551;SDS011;63774;45.292;11.784;2022-10-29T01:04:55;7.70;;;5.40;;
69551;SDS011;63774;45.292;11.784;2022-10-29T01:07:21;8.50;;;5.50;;
69551;SDS011;63774;45.292;11.784;2022-10-29T01:09:47;9.60;;;5.60;;
69551;SDS011;63774;45.292;11.784;2022-10-29T01:24:26;10.00;;;6.00;;
69551;SDS011;63774;45.292;11.784;2022-10-29T01:35:22;7.80;;;5.30;;
69551;SDS011;63774;45.292;11.784;2022-10-29T01:37:56;8.00;;;5.70;;
69551;SDS011;63774;45.292;11.784;2022-10-29T01:40:36;9.60;;;5.30;;
69551;SDS011;63774;45.292;11.784;2022-10-29T01:45:55;6.60;;;5.00;;
69551;SDS011;63774;45.292;11.784;2022-10-29T01:48:28;8.40;;;5.00;;
69551;SDS011;63774;45.292;11.784;2022-10-29T01:50:59;9.80;;;5.40;;
69551;SDS011;63774;45.292;11.784;2022-10-29T01:53:27;9.10;;;5.40;;
69551;SDS011;63774;45.292;11.784;2022-10-29T01:55:54;8.60;;;5.10;;
69551;SDS011;63774;45.292;11.784;2022-10-29T01:58:20;8.30;;;5.00;;
69551;SDS011;63774;45.292;11.784;2022-10-29T02:03:46;7.30;;;5.00;;
69551;SDS011;63774;45.292;11.784;2022-10-29T02:14:44;9.90;;;5.60;;
69551;SDS011;63774;45.292;11.784;2022-10-29T02:17:23;6.90;;;4.80;;
69551;SDS011;63774;45.292;11.784;2022-10-29T02:19:49;8.10;;;5.30;;
69551;SDS011;63774;45.292;11.784;2022-10-29T02:22:15;7.70;;;5.10;;
69551;SDS011;63774;45.292;11.784;2022-10-29T02:24:40;9.90;;;5.00;;
69551;SDS011;63774;45.292;11.784;2022-10-29T02:27:06;8.70;;;4.90;;
69551;SDS011;63774;45.292;11.784;2022-10-29T02:29:32;8.50;;;5.20;;
69551;SDS011;63774;45.292;11.784;2022-10-29T02:31:58;7.00;;;4.80;;
69551;SDS011;63774;45.292;11.784;2022-10-29T02:34:23;7.80;;;5.20;;
69551;SDS011;63774;45.292;11.784;2022-10-29T02:36:49;7.40;;;5.00;;
69551;SDS011;63774;45.292;11.784;2022-10-29T02:39:14;7.20;;;4.90;;
69551;SDS011;63774;45.292;11.784;2022-10-29T02:41:39;7.90;;;4.90;;
69551;SDS011;63774;45.292;11.784;2022-10-29T02:44:05;7.10;;;4.90;;
69551;SDS011;63774;45.292;11.784;2022-10-29T02:46:30;7.10;;;5.00;;
69551;SDS011;63774;45.292;11.784;2022-10-29T02:48:56;8.80;;;4.80;;
69551;SDS011;63774;45.292;11.784;2022-10-29T02:51:21;8.50;;;5.40;;
69551;SDS011;63774;45.292;11.784;2022-10-29T02:53:47;8.10;;;4.90;;
69551;SDS011;63774;45.292;11.784;2022-10-29T02:56:12;7.30;;;4.70;;
69551;SDS011;63774;45.292;11.784;2022-10-29T02:58:38;7.30;;;5.10;;
69551;SDS011;63774;45.292;11.784;2022-10-29T03:01:03;9.00;;;5.00;;
69551;SDS011;63774;45.292;11.784;2022-10-29T03:03:29;8.10;;;4.90;;
69551;SDS011;63774;45.292;11.784;2022-10-29T03:05:54;8.10;;;5.20;;
69551;SDS011;63774;45.292;11.784;2022-10-29T03:08:20;7.20;;;5.10;;
69551;SDS011;63774;45.292;11.784;2022-10-29T03:10:46;8.20;;;5.10;;
69551;SDS011;63774;45.292;11.784;2022-10-29T03:13:11;9.00;;;5.10;;
69551;SDS011;63774;45.292;11.784;2022-10-29T03:15:37;8.10;;;5.10;;
69551;SDS011;63774;45.292;11.784;2022-10-29T03:18:03;9.00;;;5.10;;
69551;SDS011;63774;45.292;11.784;2022-10-29T03:20:29;8.40;;;5.20;;
69551;SDS011;63774;45.292;11.784;2022-10-29T03:22:55;8.80;;;5.20;;
69551;SDS011;63774;45.292;11.784;2022-10-29T03:25:20;6.90;;;4.70;;
69551;SDS011;63774;45.292;11.784;2022-10-29T03:27:46;7.70;;;5.40;;
69551;SDS011;63774;45.292;11.784;2022-10-29T03:30:13;8.00;;;5.10;;
69551;SDS011;63774;45.292;11.784;2022-10-29T03:32:40;8.70;;;5.20;;
69551;SDS011;63774;45.292;11.784;2022-10-29T03:35:07;8.90;;;4.90;;
69551;SDS011;63774;45.292;11.784;2022-10-29T03:37:33;7.60;;;5.00;;
69551;SDS011;63774;45.292;11.784;2022-10-29T03:39:59;9.60;;;6.00;;
69551;SDS011;63774;45.292;11.784;2022-10-29T03:42:24;9.00;;;5.10;;
69551;SDS011;63774;45.292;11.784;2022-10-29T03:44:50;11.80;;;6.00;;
69551;SDS011;63774;45.292;11.784;2022-10-29T03:47:15;9.60;;;5.00;;
69551;SDS011;63774;45.292;11.784;2022-10-29T03:49:41;8.30;;;5.50;;
69551;SDS011;63774;45.292;11.784;2022-10-29T03:52:06;10.10;;;5.30;;
69551;SDS011;63774;45.292;11.784;2022-10-29T03:54:32;8.50;;;5.50;;
69551;SDS011;63774;45.292;11.784;2022-10-29T03:56:57;9.20;;;5.60;;
69551;SDS011;63774;45.292;11.784;2022-10-29T03:59:23;8.10;;;5.20;;
69551;SDS011;63774;45.292;11.784;2022-10-29T04:01:48;8.20;;;5.40;;
69551;SDS011;63774;45.292;11.784;2022-10-29T04:04:14;9.20;;;5.80;;
69551;SDS011;63774;45.292;11.784;2022-10-29T04:06:39;7.20;;;5.30;;
69551;SDS011;63774;45.292;11.784;2022-10-29T04:09:04;10.40;;;5.30;;
69551;SDS011;63774;45.292;11.784;2022-10-29T04:11:30;8.30;;;5.10;;
69551;SDS011;63774;45.292;11.784;2022-10-29T04:13:56;8.80;;;5.50;;
69551;SDS011;63774;45.292;11.784;2022-10-29T04:16:21;9.40;;;6.00;;
69551;SDS011;63774;45.292;11.784;2022-10-29T04:18:47;8.50;;;5.00;;
69551;SDS011;63774;45.292;11.784;2022-10-29T04:21:13;8.50;;;5.50;;
69551;SDS011;63774;45.292;11.784;2022-10-29T04:23:39;8.40;;;5.30;;
69551;SDS011;63774;45.292;11.784;2022-10-29T04:26:05;9.00;;;5.50;;
69551;SDS011;63774;45.292;11.784;2022-10-29T04:28:30;8.00;;;5.50;;
69551;SDS011;63774;45.292;11.784;2022-10-29T04:30:55;8.60;;;5.20;;
69551;SDS011;63774;45.292;11.784;2022-10-29T04:33:21;8.10;;;5.50;;
69551;SDS011;63774;45.292;11.784;2022-10-29T04:35:50;9.80;;;5.20;;
69551;SDS011;63774;45.292;11.784;2022-10-29T04:38:18;11.90;;;5.40;;
69551;SDS011;63774;45.292;11.784;2022-10-29T04:40:44;7.30;;;5.10;;
69551;SDS011;63774;45.292;11.784;2022-10-29T04:43:10;7.60;;;5.40;;
69551;SDS011;63774;45.292;11.784;2022-10-29T04:45:35;9.60;;;5.50;;
69551;SDS011;63774;45.292;11.784;2022-10-29T04:48:01;9.10;;;5.60;;
69551;SDS011;63774;45.292;11.784;2022-10-29T04:50:28;9.60;;;5.80;;
69551;SDS011;63774;45.292;11.784;2022-10-29T04:52:58;9.20;;;5.60;;
69551;SDS011;63774;45.292;11.784;2022-10-29T04:55:24;8.50;;;5.90;;
69551;SDS011;63774;45.292;11.784;2022-10-29T04:57:50;9.60;;;5.60;;
69551;SDS011;63774;45.292;11.784;2022-10-29T05:00:16;9.40;;;5.50;;
69551;SDS011;63774;45.292;11.784;2022-10-29T05:02:41;11.10;;;5.80;;
69551;SDS011;63774;45.292;11.784;2022-10-29T05:05:07;11.00;;;6.40;;
69551;SDS011;63774;45.292;11.784;2022-10-29T05:07:33;11.90;;;6.30;;
69551;SDS011;63774;45.292;11.784;2022-10-29T05:09:58;9.90;;;5.50;;
69551;SDS011;63774;45.292;11.784;2022-10-29T05:12:23;8.80;;;5.50;;
69551;SDS011;63774;45.292;11.784;2022-10-29T05:14:49;8.80;;;5.40;;
69551;SDS011;63774;45.292;11.784;2022-10-29T05:17:14;7.90;;;5.10;;
69551;SDS011;63774;45.292;11.784;2022-10-29T05:19:40;7.80;;;5.50;;
69551;SDS011;63774;45.292;11.784;2022-10-29T05:22:05;7.90;;;5.60;;
69551;SDS011;63774;45.292;11.784;2022-10-29T05:24:31;9.80;;;5.40;;
69551;SDS011;63774;45.292;11.784;2022-10-29T05:26:56;9.10;;;5.20;;
69551;SDS011;63774;45.292;11.784;2022-10-29T05:29:22;8.90;;;5.80;;
69551;SDS011;63774;45.292;11.784;2022-10-29T05:31:47;10.10;;;5.80;;
69551;SDS011;63774;45.292;11.784;2022-10-29T05:34:12;8.20;;;5.50;;
69551;SDS011;63774;45.292;11.784;2022-10-29T05:36:38;7.40;;;5.30;;
69551;SDS011;63774;45.292;11.784;2022-10-29T05:39:03;9.20;;;5.00;;
69551;SDS011;63774;45.292;11.784;2022-10-29T05:41:29;10.00;;;5.50;;
69551;SDS011;63774;45.292;11.784;2022-10-29T05:43:54;10.30;;;5.50;;
69551;SDS011;63774;45.292;11.784;2022-10-29T05:46:19;10.70;;;6.00;;
69551;SDS011;63774;45.292;11.784;2022-10-29T05:48:45;9.60;;;5.50;;
69551;SDS011;63774;45.292;11.784;2022-10-29T05:51:10;7.40;;;5.10;;
69551;SDS011;63774;45.292;11.784;2022-10-29T05:53:36;7.90;;;5.10;;
69551;SDS011;63774;45.292;11.784;2022-10-29T05:56:01;10.70;;;6.00;;
69551;SDS011;63774;45.292;11.784;2022-10-29T05:58:27;9.80;;;5.70;;
69551;SDS011;63774;45.292;11.784;2022-10-29T06:00:52;9.00;;;5.50;;
69551;SDS011;63774;45.292;11.784;2022-10-29T06:03:18;7.60;;;5.30;;
69551;SDS011;63774;45.292;11.784;2022-10-29T06:05:46;8.10;;;5.30;;
69551;SDS011;63774;45.292;11.784;2022-10-29T06:08:12;8.50;;;5.70;;
69551;SDS011;63774;45.292;11.784;2022-10-29T06:10:38;8.20;;;5.10;;
69551;SDS011;63774;45.292;11.784;2022-10-29T06:13:37;8.60;;;5.60;;
69551;SDS011;63774;45.292;11.784;2022-10-29T06:15:57;7.40;;;5.20;;
69551;SDS011;63774;45.292;11.784;2022-10-29T06:18:24;9.10;;;5.20;;
69551;SDS011;63774;45.292;11.784;2022-10-29T06:20:50;8.20;;;5.30;;
69551;SDS011;63774;45.292;11.784;2022-10-29T06:23:15;8.00;;;5.40;;
69551;SDS011;63774;45.292;11.784;2022-10-29T06:25:41;10.00;;;5.80;;
69551;SDS011;63774;45.292;11.784;2022-10-29T06:28:07;8.40;;;5.40;;
69551;SDS011;63774;45.292;11.784;2022-10-29T06:30:36;8.30;;;5.70;;
69551;SDS011;63774;45.292;11.784;2022-10-29T06:33:02;8.30;;;5.30;;
69551;SDS011;63774;45.292;11.784;2022-10-29T06:35:28;8.20;;;5.30;;
69551;SDS011;63774;45.292;11.784;2022-10-29T06:37:54;8.40;;;5.40;;
69551;SDS011;63774;45.292;11.784;2022-10-29T06:40:20;8.10;;;5.20;;
69551;SDS011;63774;45.292;11.784;2022-10-29T06:42:45;7.60;;;5.50;;
69551;SDS011;63774;45.292;11.784;2022-10-29T06:45:11;8.40;;;5.20;;
69551;SDS011;63774;45.292;11.784;2022-10-29T06:47:38;7.40;;;5.00;;
69551;SDS011;63774;45.292;11.784;2022-10-29T06:50:07;8.90;;;5.50;;
69551;SDS011;63774;45.292;11.784;2022-10-29T06:52:34;8.20;;;5.50;;
69551;SDS011;63774;45.292;11.784;2022-10-29T06:55:00;6.90;;;5.20;;
69551;SDS011;63774;45.292;11.784;2022-10-29T06:57:28;9.10;;;5.30;;
69551;SDS011;63774;45.292;11.784;2022-10-29T06:59:54;9.90;;;5.50;;
69551;SDS011;63774;45.292;11.784;2022-10-29T07:02:20;8.40;;;5.40;;
69551;SDS011;63774;45.292;11.784;2022-10-29T07:04:46;9.60;;;5.50;;
69551;SDS011;63774;45.292;11.784;2022-10-29T07:07:12;9.60;;;5.40;;
69551;SDS011;63774;45.292;11.784;2022-10-29T07:09:38;8.50;;;5.40;;
69551;SDS011;63774;45.292;11.784;2022-10-29T07:12:04;7.30;;;4.90;;
69551;SDS011;63774;45.292;11.784;2022-10-29T07:14:30;9.10;;;5.40;;
69551;SDS011;63774;45.292;11.784;2022-10-29T07:16:56;8.30;;;5.10;;
69551;SDS011;63774;45.292;11.784;2022-10-29T07:19:21;7.60;;;5.40;;
69551;SDS011;63774;45.292;11.784;2022-10-29T07:21:46;7.60;;;5.00;;
69551;SDS011;63774;45.292;11.784;2022-10-29T07:24:12;8.30;;;4.90;;
69551;SDS011;63774;45.292;11.784;2022-10-29T07:26:37;9.30;;;5.40;;
69551;SDS011;63774;45.292;11.784;2022-10-29T07:29:03;10.70;;;5.40;;
69551;SDS011;63774;45.292;11.784;2022-10-29T07:31:29;11.80;;;5.40;;
69551;SDS011;63774;45.292;11.784;2022-10-29T07:33:55;9.50;;;5.40;;
69551;SDS011;63774;45.292;11.784;2022-10-29T07:36:21;9.40;;;5.50;;
69551;SDS011;63774;45.292;11.784;2022-10-29T07:38:47;7.30;;;5.50;;
69551;SDS011;63774;45.292;11.784;2022-10-29T07:41:12;8.20;;;5.50;;
69551;SDS011;63774;45.292;11.784;2022-10-29T07:43:38;9.00;;;5.30;;
69551;SDS011;63774;45.292;11.784;2022-10-29T07:46:04;10.10;;;6.10;;
69551;SDS011;63774;45.292;11.784;2022-10-29T07:48:30;7.90;;;5.00;;
69551;SDS011;63774;45.292;11.784;2022-10-29T07:51:01;8.60;;;5.40;;
69551;SDS011;63774;45.292;11.784;2022-10-29T07:53:27;8.60;;;5.40;;
69551;SDS011;63774;45.292;11.784;2022-10-29T07:55:55;9.10;;;5.50;;
69551;SDS011;63774;45.292;11.784;2022-10-29T07:58:21;8.80;;;5.70;;
69551;SDS011;63774;45.292;11.784;2022-10-29T08:00:47;8.70;;;5.20;;
69551;SDS011;63774;45.292;11.784;2022-10-29T08:03:12;8.60;;;5.20;;
69551;SDS011;63774;45.292;11.784;2022-10-29T08:05:38;9.80;;;6.00;;
69551;SDS011;63774;45.292;11.784;2022-10-29T08:08:04;10.30;;;6.50;;
69551;SDS011;63774;45.292;11.784;2022-10-29T08:10:30;12.80;;;7.00;;
69551;SDS011;63774;45.292;11.784;2022-10-29T08:12:58;14.40;;;8.30;;
69551;SDS011;63774;45.292;11.784;2022-10-29T08:15:25;16.80;;;8.80;;
69551;SDS011;63774;45.292;11.784;2022-10-29T08:17:52;16.30;;;9.90;;
69551;SDS011;63774;45.292;11.784;2022-10-29T08:20:19;19.70;;;10.50;;
69551;SDS011;63774;45.292;11.784;2022-10-29T08:22:45;19.50;;;12.00;;
69551;SDS011;63774;45.292;11.784;2022-10-29T08:25:11;19.70;;;12.00;;
69551;SDS011;63774;45.292;11.784;2022-10-29T08:27:37;19.80;;;11.90;;
69551;SDS011;63774;45.292;11.784;2022-10-29T08:30:03;19.60;;;12.10;;
69551;SDS011;63774;45.292;11.784;2022-10-29T08:32:30;20.70;;;12.70;;
69551;SDS011;63774;45.292;11.784;2022-10-29T08:34:56;22.70;;;13.60;;
69551;SDS011;63774;45.292;11.784;2022-10-29T08:37:21;21.50;;;12.10;;
69551;SDS011;63774;45.292;11.784;2022-10-29T08:39:47;21.10;;;12.30;;
69551;SDS011;63774;45.292;11.784;2022-10-29T08:47:54;20.90;;;13.30;;
69551;SDS011;63774;45.292;11.784;2022-10-29T08:50:46;19.00;;;12.80;;
69551;SDS011;63774;45.292;11.784;2022-10-29T08:53:20;19.50;;;12.60;;
69551;SDS011;63774;45.292;11.784;2022-10-29T08:55:51;20.60;;;13.20;;
69551;SDS011;63774;45.292;11.784;2022-10-29T09:01:16;22.10;;;13.20;;
69551;SDS011;63774;45.292;11.784;2022-10-29T09:03:44;20.50;;;13.20;;
69551;SDS011;63774;45.292;11.784;2022-10-29T09:06:11;19.40;;;12.80;;
69551;SDS011;63774;45.292;11.784;2022-10-29T09:08:53;19.80;;;12.80;;
69551;SDS011;63774;45.292;11.784;2022-10-29T09:11:29;21.00;;;12.40;;
69551;SDS011;63774;45.292;11.784;2022-10-29T09:17:09;24.20;;;13.10;;
69551;SDS011;63774;45.292;11.784;2022-10-29T09:25:37;19.90;;;13.00;;
69551;SDS011;63774;45.292;11.784;2022-10-29T09:31:00;23.50;;;14.90;;
69551;SDS011;63774;45.292;11.784;2022-10-29T09:33:33;23.80;;;14.90;;
69551;SDS011;63774;45.292;11.784;2022-10-29T09:35:59;23.90;;;14.00;;
69551;SDS011;63774;45.292;11.784;2022-10-29T09:38:29;23.10;;;14.30;;
69551;SDS011;63774;45.292;11.784;2022-10-29T09:40:59;25.50;;;14.50;;
69551;SDS011;63774;45.292;11.784;2022-10-29T09:52:08;25.50;;;14.50;;
69551;SDS011;63774;45.292;11.784;2022-10-29T09:54:38;27.40;;;16.10;;
69551;SDS011;63774;45.292;11.784;2022-10-29T09:57:03;26.60;;;16.00;;
69551;SDS011;63774;45.292;11.784;2022-10-29T09:59:34;28.10;;;16.30;;
69551;SDS011;63774;45.292;11.784;2022-10-29T10:02:19;35.20;;;17.30;;
69551;SDS011;63774;45.292;11.784;2022-10-29T10:04:58;33.60;;;18.40;;
69551;SDS011;63774;45.292;11.784;2022-10-29T10:10:59;30.30;;;17.70;;
69551;SDS011;63774;45.292;11.784;2022-10-29T10:13:28;29.50;;;17.00;;
69551;SDS011;63774;45.292;11.784;2022-10-29T10:15:56;28.90;;;17.70;;
69551;SDS011;63774;45.292;11.784;2022-10-29T10:23:52;29.10;;;17.00;;
69551;SDS011;63774;45.292;11.784;2022-10-29T10:29:03;30.10;;;17.60;;
69551;SDS011;63774;45.292;11.784;2022-10-29T10:31:28;26.40;;;16.30;;
69551;SDS011;63774;45.292;11.784;2022-10-29T10:33:54;30.70;;;17.40;;
69551;SDS011;63774;45.292;11.784;2022-10-29T10:36:24;30.00;;;17.20;;
69551;SDS011;63774;45.292;11.784;2022-10-29T10:38:53;25.30;;;16.20;;
69551;SDS011;63774;45.292;11.784;2022-10-29T10:41:31;30.40;;;16.80;;
69551;SDS011;63774;45.292;11.784;2022-10-29T10:44:00;31.90;;;16.30;;
69551;SDS011;63774;45.292;11.784;2022-10-29T10:46:30;30.50;;;15.80;;
69551;SDS011;63774;45.292;11.784;2022-10-29T10:49:11;25.30;;;15.60;;
69551;SDS011;63774;45.292;11.784;2022-10-29T10:51:58;29.00;;;18.20;;
69551;SDS011;63774;45.292;11.784;2022-10-29T10:57:00;30.40;;;17.00;;
69551;SDS011;63774;45.292;11.784;2022-10-29T10:59:30;29.40;;;16.70;;
69551;SDS011;63774;45.292;11.784;2022-10-29T11:02:01;29.30;;;16.50;;
69551;SDS011;63774;45.292;11.784;2022-10-29T11:04:30;25.00;;;15.30;;
69551;SDS011;63774;45.292;11.784;2022-10-29T11:07:03;29.40;;;16.20;;
69551;SDS011;63774;45.292;11.784;2022-10-29T11:09:39;26.90;;;15.10;;
69551;SDS011;63774;45.292;11.784;2022-10-29T11:14:53;29.50;;;15.70;;
69551;SDS011;63774;45.292;11.784;2022-10-29T11:17:26;26.50;;;15.80;;
69551;SDS011;63774;45.292;11.784;2022-10-29T11:19:57;31.60;;;17.90;;
69551;SDS011;63774;45.292;11.784;2022-10-29T11:27:54;32.60;;;18.60;;
69551;SDS011;63774;45.292;11.784;2022-10-29T11:30:27;33.30;;;18.40;;
69551;SDS011;63774;45.292;11.784;2022-10-29T11:36:34;29.50;;;16.70;;
69551;SDS011;63774;45.292;11.784;2022-10-29T11:41:58;28.60;;;17.40;;
69551;SDS011;63774;45.292;11.784;2022-10-29T11:44:25;28.10;;;17.40;;
69551;SDS011;63774;45.292;11.784;2022-10-29T12:12:26;36.10;;;19.30;;
69551;SDS011;63774;45.292;11.784;2022-10-29T12:15:09;32.60;;;18.50;;
69551;SDS011;63774;45.292;11.784;2022-10-29T12:17:46;33.60;;;19.40;;
69551;SDS011;63774;45.292;11.784;2022-10-29T12:33:24;28.00;;;16.10;;
69551;SDS011;63774;45.292;11.784;2022-10-29T12:38:42;25.60;;;16.40;;
69551;SDS011;63774;45.292;11.784;2022-10-29T12:42:04;29.70;;;17.80;;
69551;SDS011;63774;45.292;11.784;2022-10-29T12:47:05;31.00;;;18.90;;
69551;SDS011;63774;45.292;11.784;2022-10-29T12:49:45;34.60;;;19.50;;
69551;SDS011;63774;45.292;11.784;2022-10-29T12:55:06;32.80;;;19.60;;
69551;SDS011;63774;45.292;11.784;2022-10-29T12:57:35;33.80;;;20.60;;
69551;SDS011;63774;45.292;11.784;2022-10-29T13:02:45;33.90;;;20.10;;
69551;SDS011;63774;45.292;11.784;2022-10-29T13:05:11;32.20;;;19.70;;
69551;SDS011;63774;45.292;11.784;2022-10-29T13:15:20;31.60;;;16.90;;
69551;SDS011;63774;45.292;11.784;2022-10-29T13:17:48;29.20;;;16.60;;
69551;SDS011;63774;45.292;11.784;2022-10-29T13:20:24;25.50;;;16.00;;
69551;SDS011;63774;45.292;11.784;2022-10-29T13:22:57;25.10;;;15.20;;
69551;SDS011;63774;45.292;11.784;2022-10-29T13:30:37;25.70;;;15.50;;
69551;SDS011;63774;45.292;11.784;2022-10-29T13:35:52;25.20;;;15.20;;
69551;SDS011;63774;45.292;11.784;2022-10-29T13:38:38;26.20;;;15.10;;
69551;SDS011;63774;45.292;11.784;2022-10-29T13:41:13;26.80;;;16.00;;
69551;SDS011;63774;45.292;11.784;2022-10-29T13:43:42;23.70;;;15.10;;
69551;SDS011;63774;45.292;11.784;2022-10-29T13:49:44;25.40;;;14.20;;
69551;SDS011;63774;45.292;11.784;2022-10-29T13:52:15;23.30;;;13.60;;
69551;SDS011;63774;45.292;11.784;2022-10-29T13:59:41;21.70;;;13.60;;
69551;SDS011;63774;45.292;11.784;2022-10-29T14:04:45;19.80;;;12.80;;
69551;SDS011;63774;45.292;11.784;2022-10-29T14:07:19;21.80;;;12.60;;
69551;SDS011;63774;45.292;11.784;2022-10-29T14:09:53;17.80;;;11.50;;
69551;SDS011;63774;45.292;11.784;2022-10-29T14:12:21;19.70;;;12.20;;
69551;SDS011;63774;45.292;11.784;2022-10-29T14:17:34;16.80;;;11.50;;
69551;SDS011;63774;45.292;11.784;2022-10-29T14:20:00;17.70;;;11.10;;
69551;SDS011;63774;45.292;11.784;2022-10-29T14:24:51;20.30;;;12.30;;
69551;SDS011;63774;45.292;11.784;2022-10-29T14:27:16;16.80;;;10.50;;
69551;SDS011;63774;45.292;11.784;2022-10-29T14:29:42;14.50;;;10.00;;
69551;SDS011;63774;45.292;11.784;2022-10-29T14:34:42;19.50;;;10.80;;
69551;SDS011;63774;45.292;11.784;2022-10-29T14:37:26;16.60;;;9.80;;
69551;SDS011;63774;45.292;11.784;2022-10-29T14:39:56;16.50;;;9.40;;
69551;SDS011;63774;45.292;11.784;2022-10-29T14:42:32;14.40;;;9.80;;
69551;SDS011;63774;45.292;11.784;2022-10-29T14:45:15;19.30;;;10.20;;
69551;SDS011;63774;45.292;11.784;2022-10-29T14:47:52;15.10;;;9.10;;
69551;SDS011;63774;45.292;11.784;2022-10-29T14:50:23;13.20;;;9.10;;
69551;SDS011;63774;45.292;11.784;2022-10-29T14:56:06;14.20;;;9.00;;
69551;SDS011;63774;45.292;11.784;2022-10-29T14:58:35;13.30;;;8.90;;
69551;SDS011;63774;45.292;11.784;2022-10-29T15:01:06;12.70;;;8.10;;
69551;SDS011;63774;45.292;11.784;2022-10-29T15:03:38;11.40;;;8.20;;
69551;SDS011;63774;45.292;11.784;2022-10-29T15:06:16;12.10;;;8.20;;
69551;SDS011;63774;45.292;11.784;2022-10-29T15:08:45;15.50;;;8.20;;
69551;SDS011;63774;45.292;11.784;2022-10-29T15:13:59;12.70;;;7.60;;
69551;SDS011;63774;45.292;11.784;2022-10-29T15:16:25;12.50;;;7.90;;
69551;SDS011;63774;45.292;11.784;2022-10-29T15:18:51;12.50;;;7.30;;
69551;SDS011;63774;45.292;11.784;2022-10-29T15:21:19;15.00;;;8.00;;
69551;SDS011;63774;45.292;11.784;2022-10-29T15:23:46;15.10;;;8.10;;
69551;SDS011;63774;45.292;11.784;2022-10-29T15:26:16;13.00;;;7.90;;
69551;SDS011;63774;45.292;11.784;2022-10-29T15:28:48;11.90;;;7.70;;
69551;SDS011;63774;45.292;11.784;2022-10-29T15:31:20;12.90;;;7.30;;
69551;SDS011;63774;45.292;11.784;2022-10-29T15:33:55;15.20;;;8.80;;
69551;SDS011;63774;45.292;11.784;2022-10-29T15:36:25;14.10;;;8.40;;
69551;SDS011;63774;45.292;11.784;2022-10-29T15:43:51;17.00;;;9.20;;
69551;SDS011;63774;45.292;11.784;2022-10-29T15:46:28;13.30;;;8.20;;
69551;SDS011;63774;45.292;11.784;2022-10-29T15:48:58;11.20;;;7.80;;
69551;SDS011;63774;45.292;11.784;2022-10-29T15:51:26;13.40;;;8.20;;
69551;SDS011;63774;45.292;11.784;2022-10-29T15:53:56;207.80;;;39.60;;
69551;SDS011;63774;45.292;11.784;2022-10-29T15:56:26;259.10;;;55.90;;
69551;SDS011;63774;45.292;11.784;2022-10-29T15:58:52;159.60;;;37.50;;
69551;SDS011;63774;45.292;11.784;2022-10-29T16:01:18;84.40;;;21.00;;
69551;SDS011;63774;45.292;11.784;2022-10-29T16:03:44;66.50;;;19.40;;
69551;SDS011;63774;45.292;11.784;2022-10-29T16:06:10;71.10;;;19.10;;
69551;SDS011;63774;45.292;11.784;2022-10-29T16:08:40;61.10;;;18.20;;
69551;SDS011;63774;45.292;11.784;2022-10-29T16:11:11;58.30;;;19.00;;
69551;SDS011;63774;45.292;11.784;2022-10-29T16:13:39;55.40;;;17.70;;
69551;SDS011;63774;45.292;11.784;2022-10-29T16:16:05;55.60;;;17.80;;
69551;SDS011;63774;45.292;11.784;2022-10-29T16:18:36;51.10;;;17.00;;
69551;SDS011;63774;45.292;11.784;2022-10-29T16:21:03;48.10;;;17.60;;
69551;SDS011;63774;45.292;11.784;2022-10-29T16:23:31;44.00;;;17.90;;
69551;SDS011;63774;45.292;11.784;2022-10-29T16:26:00;40.30;;;16.90;;
69551;SDS011;63774;45.292;11.784;2022-10-29T16:28:27;42.20;;;17.00;;
69551;SDS011;63774;45.292;11.784;2022-10-29T16:30:53;42.60;;;18.30;;
69551;SDS011;63774;45.292;11.784;2022-10-29T16:33:21;39.00;;;17.80;;
69551;SDS011;63774;45.292;11.784;2022-10-29T16:35:47;62.10;;;34.30;;
69551;SDS011;63774;45.292;11.784;2022-10-29T16:38:12;74.40;;;41.30;;
69551;SDS011;63774;45.292;11.784;2022-10-29T16:40:38;55.40;;;30.50;;
69551;SDS011;63774;45.292;11.784;2022-10-29T16:43:04;57.30;;;29.20;;
69551;SDS011;63774;45.292;11.784;2022-10-29T16:45:30;50.90;;;28.40;;
69551;SDS011;63774;45.292;11.784;2022-10-29T16:47:56;55.40;;;30.20;;
69551;SDS011;63774;45.292;11.784;2022-10-29T16:53:01;45.30;;;26.10;;
69551;SDS011;63774;45.292;11.784;2022-10-29T16:55:30;47.20;;;24.70;;
69551;SDS011;63774;45.292;11.784;2022-10-29T16:57:56;45.80;;;24.20;;
69551;SDS011;63774;45.292;11.784;2022-10-29T17:00:22;43.40;;;23.90;;
69551;SDS011;63774;45.292;11.784;2022-10-29T17:02:50;46.90;;;23.90;;
69551;SDS011;63774;45.292;11.784;2022-10-29T17:05:15;39.10;;;22.20;;
69551;SDS011;63774;45.292;11.784;2022-10-29T17:07:42;33.40;;;19.80;;
69551;SDS011;63774;45.292;11.784;2022-10-29T17:10:09;38.40;;;22.30;;
69551;SDS011;63774;45.292;11.784;2022-10-29T17:12:34;36.80;;;22.10;;
69551;SDS011;63774;45.292;11.784;2022-10-29T17:15:00;42.70;;;24.90;;
69551;SDS011;63774;45.292;11.784;2022-10-29T17:17:30;39.70;;;24.90;;
69551;SDS011;63774;45.292;11.784;2022-10-29T17:19:55;44.30;;;24.90;;
69551;SDS011;63774;45.292;11.784;2022-10-29T17:22:21;44.40;;;23.20;;
69551;SDS011;63774;45.292;11.784;2022-10-29T17:24:46;38.70;;;21.70;;
69551;SDS011;63774;45.292;11.784;2022-10-29T17:27:12;43.30;;;22.40;;
69551;SDS011;63774;45.292;11.784;2022-10-29T17:29:37;92.90;;;47.70;;
69551;SDS011;63774;45.292;11.784;2022-10-29T17:32:04;73.00;;;37.40;;
69551;SDS011;63774;45.292;11.784;2022-10-29T17:34:30;77.60;;;39.90;;
69551;SDS011;63774;45.292;11.784;2022-10-29T17:36:56;76.50;;;38.60;;